Time;durP1;ratioP1;P1;durP2;ratioP2;P2;SDS_P1;SDS_P2;PMS_P1;PMS_P2;Temp;Humidity;BMP_temperature;BMP_pressure;BME280_temperature;BME280_humidity;BME280_pressure;Samples;Min_cycle;Max_cycle;Signal;HPM_P1;HPM_P2
2021/08/14 00:02:13;;;;;;;16.58;9.77;;;18.40;99.90;;;;;;6224824;23;20091;-93
2021/08/14 00:05:03;;;;;;;14.68;9.10;;;18.40;99.90;;;;;;6245070;23;20427;-93
2021/08/14 00:07:58;;;;;;;17.80;9.65;;;18.40;99.90;;;;;;6247012;23;20024;-92
2021/08/14 00:10:47;;;;;;;13.63;9.40;;;18.40;99.90;;;;;;6228250;23;20035;-94
2021/08/14 00:13:37;;;;;;;12.73;9.32;;;18.40;99.90;;;;;;6254279;23;20024;-92
2021/08/14 00:16:25;;;;;;;14.68;9.32;;;18.40;99.90;;;;;;6195024;23;20035;-92
2021/08/14 00:19:12;;;;;;;14.30;9.38;;;18.50;99.90;;;;;;6195086;23;20095;-90
2021/08/14 00:22:02;;;;;;;15.75;9.15;;;18.40;99.90;;;;;;6192769;23;20120;-92
2021/08/14 00:24:49;;;;;;;13.27;9.77;;;18.40;99.90;;;;;;6185096;23;20021;-92
2021/08/14 00:27:36;;;;;;;13.77;9.57;;;18.30;99.90;;;;;;6187274;23;20059;-92
2021/08/14 00:30:30;;;;;;;15.35;10.00;;;18.30;99.90;;;;;;6185817;23;20029;-90
2021/08/14 00:33:37;;;;;;;12.48;10.07;;;18.30;99.90;;;;;;6156341;23;20080;-92
2021/08/14 00:36:24;;;;;;;12.40;9.20;;;18.20;99.90;;;;;;6153786;23;20033;-92
2021/08/14 00:39:12;;;;;;;16.90;9.57;;;18.20;99.90;;;;;;6155806;23;20037;-92
2021/08/14 00:42:01;;;;;;;14.57;9.35;;;18.10;99.90;;;;;;6154853;23;20029;-91
2021/08/14 00:44:50;;;;;;;14.73;9.68;;;18.10;99.90;;;;;;6136482;23;20053;-94
2021/08/14 00:47:43;;;;;;;11.48;9.13;;;18.00;99.90;;;;;;6153516;23;20029;-92
2021/08/14 00:50:30;;;;;;;13.65;9.80;;;18.00;99.90;;;;;;6157903;23;20025;-91
2021/08/14 00:53:21;;;;;;;12.68;9.75;;;18.00;99.90;;;;;;6133747;23;20044;-93
2021/08/14 00:56:08;;;;;;;13.05;9.32;;;17.90;99.90;;;;;;6152184;23;20026;-92
2021/08/14 00:58:58;;;;;;;14.27;10.63;;;17.90;99.90;;;;;;6132579;23;20036;-92
2021/08/14 01:01:45;;;;;;;18.52;10.60;;;17.70;99.90;;;;;;6135409;23;20029;-92
2021/08/14 01:04:34;;;;;;;12.15;10.20;;;17.70;99.90;;;;;;6183047;23;20032;-92
2021/08/14 01:07:21;;;;;;;12.60;9.68;;;17.80;99.90;;;;;;6182931;23;20416;-91
2021/08/14 01:10:09;;;;;;;13.43;9.95;;;17.80;99.90;;;;;;6183500;23;20032;-90
2021/08/14 01:12:56;;;;;;;15.93;10.57;;;17.80;99.90;;;;;;6184414;23;20032;-92
2021/08/14 01:15:47;;;;;;;15.88;9.50;;;17.70;99.90;;;;;;6198133;23;20087;-93
2021/08/14 01:18:40;;;;;;;11.40;9.48;;;17.70;99.90;;;;;;6214619;23;20036;-92
2021/08/14 01:21:31;;;;;;;15.02;10.90;;;17.70;99.90;;;;;;6215359;23;20021;-90
2021/08/14 01:24:21;;;;;;;14.23;9.85;;;17.70;99.90;;;;;;6218054;23;20028;-90
2021/08/14 01:27:10;;;;;;;14.95;10.32;;;17.70;99.90;;;;;;6219293;23;20297;-90
2021/08/14 01:29:57;;;;;;;13.85;9.82;;;17.70;99.90;;;;;;6218375;23;20371;-91
2021/08/14 01:32:45;;;;;;;14.18;10.52;;;17.70;99.90;;;;;;6213204;23;20047;-91
2021/08/14 01:35:32;;;;;;;11.73;9.73;;;17.70;99.90;;;;;;6213792;23;20039;-92
2021/08/14 01:38:20;;;;;;;14.35;10.38;;;17.60;99.90;;;;;;6216323;23;20020;-91
2021/08/14 01:41:09;;;;;;;12.60;9.88;;;17.60;99.90;;;;;;6216827;23;20020;-92
2021/08/14 01:44:03;;;;;;;15.65;10.38;;;17.70;99.90;;;;;;6215494;23;20027;-92
2021/08/14 01:46:50;;;;;;;15.20;9.88;;;17.70;99.90;;;;;;6217112;23;20120;-92
2021/08/14 01:49:37;;;;;;;14.90;10.13;;;17.80;99.90;;;;;;6217091;23;20036;-93
2021/08/14 01:52:25;;;;;;;16.83;10.65;;;17.80;99.90;;;;;;6216211;23;20024;-92
2021/08/14 01:55:12;;;;;;;15.55;9.60;;;17.90;99.90;;;;;;6214064;23;20024;-90
2021/08/14 01:57:59;;;;;;;13.82;10.50;;;17.90;99.90;;;;;;6214178;23;20024;-93
2021/08/14 02:00:46;;;;;;;15.00;9.60;;;18.00;99.90;;;;;;6214598;23;20032;-92
2021/08/14 02:03:35;;;;;;;20.23;9.25;;;17.90;99.90;;;;;;6217498;23;20020;-92
2021/08/14 02:06:24;;;;;;;15.23;10.13;;;17.80;99.90;;;;;;6213647;23;20643;-91
2021/08/14 02:09:12;;;;;;;14.45;9.75;;;17.80;99.90;;;;;;6216457;23;20028;-93
2021/08/14 02:11:59;;;;;;;15.57;9.35;;;17.80;99.90;;;;;;6215116;23;20029;-92
2021/08/14 02:14:47;;;;;;;15.55;10.23;;;17.70;99.90;;;;;;6225787;23;20028;-91
2021/08/14 02:17:37;;;;;;;15.48;10.32;;;17.60;99.90;;;;;;6224559;23;20399;-91
2021/08/14 02:20:25;;;;;;;15.38;10.07;;;17.50;99.90;;;;;;6249190;23;20024;-92
2021/08/14 02:23:12;;;;;;;14.45;11.20;;;17.50;99.90;;;;;;6240078;23;20058;-91
2021/08/14 02:26:00;;;;;;;15.30;10.05;;;17.50;99.90;;;;;;6240301;23;20030;-92
2021/08/14 02:28:48;;;;;;;15.80;10.35;;;17.50;99.90;;;;;;6226956;23;20043;-94
2021/08/14 02:31:35;;;;;;;13.55;10.23;;;17.50;99.90;;;;;;6226712;23;20024;-92
2021/08/14 02:34:22;;;;;;;15.13;10.85;;;17.50;99.90;;;;;;6246604;23;20040;-93
2021/08/14 02:37:11;;;;;;;15.25;11.02;;;17.60;99.90;;;;;;6226228;23;20047;-92
2021/08/14 02:39:58;;;;;;;17.35;10.48;;;17.50;99.90;;;;;;6246112;23;20024;-93
2021/08/14 02:42:46;;;;;;;16.63;11.43;;;17.50;99.90;;;;;;6219986;23;20093;-93
2021/08/14 02:45:36;;;;;;;17.50;10.02;;;17.40;99.90;;;;;;6244058;23;20154;-92
2021/08/14 02:48:24;;;;;;;14.00;10.68;;;17.30;99.90;;;;;;6246423;23;20082;-92
2021/08/14 02:51:11;;;;;;;18.65;10.93;;;17.30;99.90;;;;;;6223235;23;20024;-93
2021/08/14 02:53:59;;;;;;;15.13;11.27;;;17.20;99.90;;;;;;6247253;23;20031;-93
2021/08/14 02:56:47;;;;;;;14.05;11.05;;;17.30;99.90;;;;;;6223915;23;20043;-91
2021/08/14 02:59:34;;;;;;;16.60;11.30;;;17.40;99.90;;;;;;6225632;23;20024;-93
2021/08/14 03:02:21;;;;;;;14.25;11.05;;;17.30;99.90;;;;;;6246247;23;20330;-93
2021/08/14 03:05:09;;;;;;;19.02;11.15;;;17.30;99.90;;;;;;6245619;23;20061;-91
2021/08/14 03:07:57;;;;;;;17.52;12.05;;;17.20;99.90;;;;;;6245126;23;20024;-90
2021/08/14 03:10:44;;;;;;;16.00;12.25;;;17.10;99.90;;;;;;6223214;23;20047;-93
2021/08/14 03:13:32;;;;;;;16.83;11.27;;;17.10;99.90;;;;;;6203325;23;20028;-92
2021/08/14 03:16:19;;;;;;;15.15;11.73;;;17.10;99.90;;;;;;6248409;22;20038;-92
2021/08/14 03:19:07;;;;;;;18.15;11.65;;;17.20;99.90;;;;;;6245091;23;20416;-93
2021/08/14 03:21:54;;;;;;;16.60;12.25;;;17.20;99.90;;;;;;6244468;23;20017;-93
2021/08/14 03:24:42;;;;;;;24.85;13.75;;;17.20;99.90;;;;;;6246808;23;20031;-91
2021/08/14 03:27:29;;;;;;;16.45;11.98;;;17.20;99.90;;;;;;6223009;23;20031;-93
2021/08/14 03:30:17;;;;;;;19.23;11.90;;;17.10;99.90;;;;;;6223614;23;20035;-90
2021/08/14 03:33:05;;;;;;;16.90;12.32;;;17.00;99.90;;;;;;6222105;23;20104;-91
2021/08/14 03:35:53;;;;;;;18.08;12.50;;;16.90;99.90;;;;;;6244642;23;20034;-91
2021/08/14 03:38:50;;;;;;;15.25;12.40;;;16.90;99.90;;;;;;6242859;23;20024;-93
2021/08/14 03:41:40;;;;;;;16.98;11.85;;;16.90;99.90;;;;;;6245449;23;20115;-92
2021/08/14 03:44:27;;;;;;;16.75;12.73;;;16.90;99.90;;;;;;6211892;23;20035;-90
2021/08/14 03:47:14;;;;;;;22.50;13.55;;;16.80;99.90;;;;;;6259360;23;20024;-92
2021/08/14 03:50:02;;;;;;;16.92;13.00;;;16.70;99.90;;;;;;6264731;22;20028;-92
2021/08/14 03:52:50;;;;;;;16.02;12.27;;;16.70;99.90;;;;;;6268722;22;20019;-91
2021/08/14 03:55:41;;;;;;;15.65;11.93;;;16.60;99.90;;;;;;6269642;22;20008;-92
2021/08/14 03:58:34;;;;;;;18.17;12.05;;;16.60;99.90;;;;;;6271985;22;20043;-92
2021/08/14 04:01:26;;;;;;;18.38;12.43;;;16.60;99.90;;;;;;6270887;22;20069;-87
2021/08/14 04:07:08;;;;;;;19.27;13.57;;;16.60;99.90;;;;;;6272021;22;20032;-91
2021/08/14 04:09:57;;;;;;;20.20;12.20;;;16.50;99.90;;;;;;6246434;23;20024;-91
2021/08/14 04:12:44;;;;;;;17.30;12.85;;;16.40;99.90;;;;;;6238154;23;20027;-91
2021/08/14 04:15:31;;;;;;;17.13;12.68;;;16.40;99.90;;;;;;6264340;23;20027;-92
2021/08/14 04:18:19;;;;;;;17.83;12.80;;;16.30;99.90;;;;;;6254604;23;20079;-93
2021/08/14 04:21:07;;;;;;;16.80;12.40;;;16.30;99.90;;;;;;6229400;23;20445;-90
2021/08/14 04:23:55;;;;;;;16.92;12.57;;;16.20;99.90;;;;;;6247440;22;20021;-92
2021/08/14 04:26:42;;;;;;;19.00;12.88;;;16.10;99.90;;;;;;6223622;23;20098;-92
2021/08/14 04:29:30;;;;;;;16.85;12.70;;;16.20;99.90;;;;;;6246680;23;20024;-91
2021/08/14 04:32:18;;;;;;;20.73;13.18;;;16.20;99.90;;;;;;6246899;23;20051;-93
2021/08/14 04:35:10;;;;;;;20.13;12.38;;;16.20;99.90;;;;;;6248207;22;20020;-93
2021/08/14 04:37:57;;;;;;;20.63;14.82;;;16.20;99.90;;;;;;6245797;23;20588;-93
2021/08/14 04:40:45;;;;;;;20.48;13.05;;;16.20;99.90;;;;;;6225204;23;20020;-93
2021/08/14 04:48:12;;;;;;;15.75;13.02;;;16.10;99.90;;;;;;6241632;23;20004;-87
2021/08/14 04:51:52;;;;;;;16.13;12.43;;;16.20;99.90;;;;;;6121215;23;20462;-86
2021/08/14 04:54:44;;;;;;;17.95;13.00;;;16.20;99.90;;;;;;6099911;23;20037;-86
2021/08/14 04:58:19;;;;;;;21.45;13.88;;;16.30;99.90;;;;;;6048988;23;20110;-88
2021/08/14 05:01:20;;;;;;;21.00;12.95;;;16.30;99.90;;;;;;6066118;23;20026;-88
2021/08/14 05:04:08;;;;;;;21.02;12.50;;;16.40;99.90;;;;;;6191548;23;20028;-90
2021/08/14 05:07:00;;;;;;;24.92;12.45;;;16.40;99.90;;;;;;6223578;23;20024;-88
2021/08/14 05:09:47;;;;;;;18.55;12.70;;;16.40;99.90;;;;;;6243296;23;20047;-88
2021/08/14 05:12:35;;;;;;;16.13;11.75;;;16.50;99.90;;;;;;6247368;22;20020;-86
2021/08/14 05:15:24;;;;;;;16.70;12.00;;;16.50;99.90;;;;;;6244808;23;20032;-87
2021/08/14 05:18:11;;;;;;;18.83;12.77;;;16.60;99.90;;;;;;6222536;23;20105;-87
2021/08/14 05:20:59;;;;;;;17.50;11.18;;;16.70;99.90;;;;;;6245344;23;20071;-87
2021/08/14 05:23:46;;;;;;;17.85;12.35;;;16.70;99.90;;;;;;6243970;23;20024;-87
2021/08/14 05:26:35;;;;;;;18.33;12.13;;;16.80;99.90;;;;;;6224382;23;20024;-87
2021/08/14 05:29:22;;;;;;;21.13;11.48;;;16.90;99.90;;;;;;6224096;23;20031;-87
2021/08/14 05:32:10;;;;;;;14.98;11.70;;;17.00;99.90;;;;;;6223168;23;20374;-88
2021/08/14 05:34:57;;;;;;;14.95;11.55;;;17.20;99.90;;;;;;6222445;23;20031;-88
2021/08/14 05:37:46;;;;;;;14.05;10.95;;;17.30;99.90;;;;;;6223259;23;20036;-87
2021/08/14 05:40:33;;;;;;;14.20;10.48;;;17.40;99.90;;;;;;6222564;23;20082;-88
2021/08/14 05:43:21;;;;;;;13.88;11.30;;;17.50;99.90;;;;;;6201711;23;20382;-87
2021/08/14 05:46:08;;;;;;;14.65;10.40;;;17.60;99.90;;;;;;6244019;23;20089;-86
2021/08/14 05:48:56;;;;;;;13.23;10.73;;;17.60;99.90;;;;;;6221786;23;20080;-88
2021/08/14 05:51:43;;;;;;;14.45;11.30;;;17.70;99.90;;;;;;6222499;23;20129;-89
2021/08/14 05:54:35;;;;;;;13.82;11.35;;;17.70;99.90;;;;;;6243331;23;20028;-87
2021/08/14 05:57:22;;;;;;;17.35;11.25;;;17.90;99.90;;;;;;6220932;23;20068;-88
2021/08/14 06:00:10;;;;;;;14.15;10.07;;;18.00;99.90;;;;;;6242221;23;20024;-89
2021/08/14 06:03:02;;;;;;;16.73;10.18;;;18.20;99.90;;;;;;6223782;23;20028;-89
2021/08/14 06:05:50;;;;;;;;;;;18.30;99.90;;;;;;6225464;22;20162;-89
2021/08/14 06:08:37;;;;;;;14.70;10.27;;;18.50;99.90;;;;;;6211627;23;19927;-88
2021/08/14 06:11:24;;;;;;;13.02;10.13;;;18.60;99.90;;;;;;6214685;23;20032;-91
2021/08/14 06:14:14;;;;;;;12.30;10.27;;;18.80;99.90;;;;;;6214982;23;20025;-89
2021/08/14 06:17:01;;;;;;;11.57;8.77;;;18.90;99.90;;;;;;6234948;23;20029;-87
2021/08/14 06:19:49;;;;;;;13.20;8.85;;;19.10;99.90;;;;;;6213501;23;20028;-86
2021/08/14 06:22:43;;;;;;;11.45;9.00;;;19.30;99.90;;;;;;6212260;23;20095;-86
2021/08/14 06:25:30;;;;;;;11.82;9.18;;;19.80;99.90;;;;;;6215482;23;20039;-86
2021/08/14 06:28:17;;;;;;;17.77;9.23;;;20.10;99.90;;;;;;6211447;23;20025;-87
2021/08/14 06:31:16;;;;;;;12.35;9.02;;;20.50;99.90;;;;;;6214002;23;20082;-90
2021/08/14 06:34:06;;;;;;;11.38;8.38;;;20.80;99.90;;;;;;6214799;23;20036;-89
2021/08/14 06:36:53;;;;;;;9.02;7.60;;;21.20;99.90;;;;;;6237764;23;20111;-85
2021/08/14 06:39:42;;;;;;;12.73;8.40;;;21.60;99.90;;;;;;6233450;23;20436;-87
2021/08/14 06:42:30;;;;;;;11.10;7.75;;;22.10;99.90;;;;;;6215322;23;20128;-88
2021/08/14 06:45:18;;;;;;;12.00;7.60;;;22.30;99.90;;;;;;6211471;23;20021;-86
2021/08/14 06:48:05;;;;;;;10.02;8.13;;;22.70;99.90;;;;;;6209860;23;20075;-87
2021/08/14 06:50:53;;;;;;;13.73;8.27;;;23.00;99.90;;;;;;6213602;23;20442;-86
2021/08/14 06:53:44;;;;;;;9.95;7.18;;;23.30;99.90;;;;;;6211710;23;20032;-88
2021/08/14 06:56:35;;;;;;;8.93;7.43;;;23.80;99.90;;;;;;6213794;23;20032;-89
2021/08/14 06:59:22;;;;;;;9.38;7.63;;;24.20;99.90;;;;;;6215374;22;20020;-86
2021/08/14 07:02:14;;;;;;;13.45;7.70;;;24.20;99.90;;;;;;6210213;23;20020;-85
2021/08/14 07:05:09;;;;;;;8.30;7.05;;;24.40;99.90;;;;;;6214195;23;20128;-87
2021/08/14 07:07:57;;;;;;;10.57;7.90;;;24.90;99.90;;;;;;6216685;23;20416;-86
2021/08/14 07:10:44;;;;;;;12.20;7.55;;;25.40;99.90;;;;;;6244690;23;20027;-86
2021/08/14 07:13:34;;;;;;;9.18;7.45;;;25.70;99.90;;;;;;6242840;23;20578;-86
2021/08/14 07:16:23;;;;;;;8.88;7.45;;;25.80;99.90;;;;;;6244131;23;20020;-87
2021/08/14 07:19:10;;;;;;;16.70;8.60;;;25.40;99.90;;;;;;6222419;23;20467;-86
2021/08/14 07:21:57;;;;;;;12.30;7.95;;;25.30;99.90;;;;;;6221179;23;20052;-88
2021/08/14 07:24:47;;;;;;;10.23;7.78;;;25.30;99.90;;;;;;6223950;22;20098;-87
2021/08/14 07:27:35;;;;;;;14.15;7.40;;;25.50;99.90;;;;;;6241908;23;20091;-87
2021/08/14 07:30:25;;;;;;;14.00;6.95;;;26.10;99.90;;;;;;6243443;23;20032;-88
2021/08/14 07:33:16;;;;;;;11.07;7.15;;;26.70;99.90;;;;;;6220845;23;20027;-88
2021/08/14 07:36:09;;;;;;;13.30;8.23;;;26.90;99.90;;;;;;6241994;23;20507;-88
2021/08/14 07:38:56;;;;;;;9.25;7.53;;;27.30;99.90;;;;;;6221909;23;20374;-89
2021/08/14 07:41:43;;;;;;;14.45;7.00;;;27.40;97.80;;;;;;6245774;23;20016;-87
2021/08/14 07:44:31;;;;;;;8.23;6.90;;;27.80;97.10;;;;;;6221318;23;20020;-87
2021/08/14 07:47:35;;;;;;;10.07;7.22;;;28.10;96.00;;;;;;6225974;23;20028;-87
2021/08/14 07:50:26;;;;;;;12.15;7.22;;;27.90;98.20;;;;;;6221270;23;20028;-87
2021/08/14 07:53:13;;;;;;;9.63;6.30;;;28.20;97.40;;;;;;6241776;23;20435;-90
2021/08/14 07:56:01;;;;;;;9.30;6.88;;;29.30;92.30;;;;;;6243194;23;20032;-90
2021/08/14 07:58:50;;;;;;;10.05;7.15;;;29.20;91.20;;;;;;6241126;23;20024;-89
2021/08/14 08:01:38;;;;;;;10.50;6.72;;;28.90;91.70;;;;;;6242422;23;20109;-89
2021/08/14 08:04:25;;;;;;;8.00;6.32;;;28.80;90.70;;;;;;6243657;23;20059;-90
2021/08/14 08:07:14;;;;;;;13.80;6.80;;;29.50;89.60;;;;;;6244028;23;20029;-89
2021/08/14 08:10:02;;;;;;;12.65;6.53;;;29.80;88.50;;;;;;6221038;23;20051;-92
2021/08/14 08:12:49;;;;;;;9.57;6.03;;;30.30;86.80;;;;;;6201285;23;20115;-93
2021/08/14 08:15:40;;;;;;;9.35;6.15;;;30.50;78.60;;;;;;6243908;23;20039;-92
2021/08/14 08:18:28;;;;;;;7.65;5.90;;;30.50;76.20;;;;;;6244504;23;20035;-90
2021/08/14 08:21:15;;;;;;;7.78;6.18;;;30.60;74.70;;;;;;6243703;23;20032;-92
2021/08/14 08:24:05;;;;;;;8.23;5.60;;;30.80;71.80;;;;;;6244927;23;20028;-91
2021/08/14 08:26:54;;;;;;;7.95;6.03;;;30.60;70.70;;;;;;6245394;23;20020;-90
2021/08/14 08:29:44;;;;;;;7.45;5.47;;;30.70;69.90;;;;;;6243383;23;20039;-91
2021/08/14 08:32:35;;;;;;;7.80;5.07;;;31.50;66.50;;;;;;6249914;23;20039;-90
2021/08/14 08:35:25;;;;;;;8.60;5.93;;;32.00;66.40;;;;;;6234551;23;20103;-91
2021/08/14 08:38:13;;;;;;;5.60;5.00;;;32.50;65.20;;;;;;6256527;23;20051;-89
2021/08/14 08:41:00;;;;;;;10.50;5.60;;;32.60;63.70;;;;;;6252233;23;20031;-88
2021/08/14 08:43:51;;;;;;;8.60;5.80;;;32.60;60.90;;;;;;6228411;23;20090;-89
2021/08/14 08:46:39;;;;;;;8.40;5.38;;;32.10;61.10;;;;;;6246956;23;20032;-89
2021/08/14 08:49:29;;;;;;;11.02;6.32;;;31.80;64.50;;;;;;6244295;23;20044;-88
2021/08/14 08:52:17;;;;;;;7.43;5.55;;;31.60;61.00;;;;;;6251623;23;20028;-89
2021/08/14 08:55:05;;;;;;;8.48;5.90;;;31.60;62.20;;;;;;6259870;23;20035;-90
2021/08/14 08:58:11;;;;;;;8.82;5.68;;;32.20;63.20;;;;;;6265223;22;20403;-88
2021/08/14 09:01:13;;;;;;;7.28;5.90;;;33.10;60.00;;;;;;6267646;22;20024;-89
2021/08/14 09:04:48;;;;;;;;;;;;;;;;;;;;;
2021/08/14 09:20:08;;;;;;;7.82;5.57;;;35.20;52.80;;;;;;6254585;23;20019;-90
2021/08/14 09:23:06;;;;;;;7.05;5.20;;;34.70;53.70;;;;;;6226191;23;20115;-87
2021/08/14 09:25:57;;;;;;;9.73;5.50;;;34.70;53.80;;;;;;6225679;23;20028;-90
2021/08/14 09:29:21;;;;;;;8.65;5.25;;;34.00;54.20;;;;;;6224903;23;20028;-89
2021/08/14 09:32:14;;;;;;;10.45;5.55;;;33.50;56.10;;;;;;6247358;22;20020;-88
2021/08/14 09:35:01;;;;;;;8.55;5.60;;;33.90;57.10;;;;;;6223347;23;20024;-90
2021/08/14 09:38:08;;;;;;;7.50;5.60;;;34.80;53.80;;;;;;6224450;23;20032;-90
2021/08/14 09:41:19;;;;;;;8.93;5.47;;;35.20;52.10;;;;;;6221096;23;20028;-90
2021/08/14 09:44:15;;;;;;;9.27;5.65;;;34.30;52.60;;;;;;6245884;23;20020;-87
2021/08/14 09:47:11;;;;;;;8.40;5.25;;;33.90;55.10;;;;;;6223623;23;20024;-90
2021/08/14 09:50:01;;;;;;;8.55;5.55;;;33.90;54.40;;;;;;6221617;23;20039;-90
2021/08/14 09:53:08;;;;;;;10.93;5.78;;;34.10;52.50;;;;;;6204380;23;20103;-87
2021/08/14 09:56:12;;;;;;;10.23;5.53;;;34.40;52.30;;;;;;6244783;23;20028;-89
2021/08/14 09:59:03;;;;;;;6.72;5.38;;;35.10;52.50;;;;;;6201768;23;20088;-88
2021/08/14 10:02:21;;;;;;;6.82;4.93;;;36.10;51.30;;;;;;6229917;23;20020;-89
2021/08/14 10:05:14;;;;;;;8.35;5.30;;;36.60;48.00;;;;;;6253997;23;20054;-89
2021/08/14 10:08:05;;;;;;;7.32;5.10;;;36.20;50.60;;;;;;6232094;23;20016;-90
2021/08/14 10:11:00;;;;;;;7.03;4.93;;;36.40;48.20;;;;;;6206139;23;20113;-91
2021/08/14 10:13:55;;;;;;;6.22;5.32;;;36.50;49.90;;;;;;6222341;23;20032;-91
2021/08/14 10:16:43;;;;;;;8.35;4.80;;;37.20;49.20;;;;;;6222271;23;20435;-89
2021/08/14 10:19:34;;;;;;;9.00;5.13;;;37.60;46.00;;;;;;6244858;23;20020;-89
2021/08/14 10:22:39;;;;;;;9.85;5.28;;;37.30;46.20;;;;;;6223383;23;20036;-91
2021/08/14 10:25:36;;;;;;;13.27;5.18;;;36.70;47.80;;;;;;6222211;23;20024;-89
2021/08/14 10:28:45;;;;;;;9.10;5.57;;;36.60;47.60;;;;;;6203266;23;20456;-89
2021/08/14 10:31:57;;;;;;;9.15;5.40;;;36.70;47.90;;;;;;6221331;23;20125;-89
2021/08/14 10:34:50;;;;;;;;;;;36.30;49.50;;;;;;6223234;23;20032;-87
2021/08/14 10:37:43;;;;;;;8.48;5.05;;;36.50;49.20;;;;;;6221986;23;19915;-91
2021/08/14 10:40:57;;;;;;;6.80;5.55;;;37.20;46.70;;;;;;6223552;23;20016;-88
2021/08/14 10:43:58;;;;;;;10.75;5.50;;;36.90;47.80;;;;;;6223853;23;20078;-89
2021/08/14 10:46:51;;;;;;;8.18;5.10;;;37.10;45.70;;;;;;6222884;23;20020;-89
2021/08/14 10:49:46;;;;;;;8.52;5.50;;;36.30;46.40;;;;;;6222781;23;20453;-89
2021/08/14 10:52:38;;;;;;;12.73;5.60;;;35.80;47.30;;;;;;6225503;23;20035;-87
2021/08/14 10:55:33;;;;;;;12.35;5.20;;;35.90;48.10;;;;;;6221167;23;20442;-88
2021/08/14 10:58:36;;;;;;;9.18;4.78;;;37.20;45.80;;;;;;6225704;23;20038;-89
2021/08/14 11:01:31;;;;;;;6.85;5.35;;;38.00;44.60;;;;;;6243807;23;20090;-88
2021/08/14 11:04:43;;;;;;;9.40;5.10;;;38.80;42.40;;;;;;6221817;23;20419;-91
2021/08/14 11:07:34;;;;;;;6.95;4.82;;;39.50;44.00;;;;;;6226268;23;20026;-90
2021/08/14 11:10:31;;;;;;;9.20;4.95;;;39.60;40.80;;;;;;6225085;22;20024;-91
2021/08/14 11:13:32;;;;;;;10.50;5.03;;;38.30;42.20;;;;;;6244730;23;20058;-89
2021/08/14 11:17:01;;;;;;;7.22;5.22;;;38.40;42.00;;;;;;6223679;23;20423;-89
2021/08/14 11:19:50;;;;;;;11.80;5.20;;;37.80;42.30;;;;;;6223327;23;20024;-90
2021/08/14 11:23:04;;;;;;;8.13;5.40;;;36.80;43.70;;;;;;6224267;23;20020;-89
2021/08/14 11:25:54;;;;;;;7.82;4.82;;;36.10;44.60;;;;;;6221971;23;20044;-88
2021/08/14 11:29:02;;;;;;;6.13;4.87;;;36.80;44.00;;;;;;6221138;23;20130;-90
2021/08/14 11:31:55;;;;;;;8.23;5.30;;;37.60;44.80;;;;;;6222774;23;20036;-89
2021/08/14 11:34:46;;;;;;;8.75;4.97;;;38.30;44.70;;;;;;6221413;23;20035;-88
2021/08/14 11:38:05;;;;;;;9.33;5.23;;;38.40;40.60;;;;;;6222514;23;20035;-89
2021/08/14 11:40:53;;;;;;;6.43;4.88;;;37.60;43.10;;;;;;6221062;23;20028;-87
2021/08/14 11:43:43;;;;;;;10.57;4.97;;;37.00;43.20;;;;;;6185048;22;20028;-87
2021/08/14 11:46:32;;;;;;;10.13;4.97;;;36.80;43.10;;;;;;6225035;23;20028;-88
2021/08/14 11:49:19;;;;;;;8.02;4.95;;;37.00;43.00;;;;;;6224074;23;20118;-88
2021/08/14 11:52:10;;;;;;;8.55;5.03;;;38.10;43.40;;;;;;6223586;23;20028;-88
2021/08/14 11:55:11;;;;;;;9.80;4.93;;;39.30;40.50;;;;;;6245028;23;20020;-91
2021/08/14 11:58:08;;;;;;;10.00;5.32;;;39.30;41.90;;;;;;6223912;23;20020;-89
2021/08/14 12:00:56;;;;;;;7.50;5.28;;;39.90;38.60;;;;;;6223360;23;20331;-88
2021/08/14 12:04:21;;;;;;;9.30;4.95;;;38.60;39.30;;;;;;6224686;23;20111;-89
2021/08/14 12:07:17;;;;;;;7.43;4.82;;;37.60;43.70;;;;;;6245598;23;20513;-86
2021/08/14 12:10:07;;;;;;;8.82;4.70;;;38.10;42.00;;;;;;6245795;23;20316;-88
2021/08/14 12:13:21;;;;;;;6.93;5.20;;;38.10;43.70;;;;;;6223520;23;20094;-88
2021/08/14 12:16:39;;;;;;;6.55;5.13;;;37.10;45.90;;;;;;6247601;22;20105;-89
2021/08/14 12:19:28;;;;;;;9.18;6.57;;;37.60;43.50;;;;;;6224453;23;20023;-86
2021/08/14 12:22:16;;;;;;;7.40;5.18;;;39.10;40.10;;;;;;6246829;23;20058;-88
2021/08/14 12:25:26;;;;;;;9.80;4.75;;;39.70;39.60;;;;;;6224931;23;20452;-87
2021/08/14 12:28:18;;;;;;;9.88;5.20;;;39.40;39.20;;;;;;6222959;23;20117;-88
2021/08/14 12:31:52;;;;;;;7.38;5.15;;;39.00;41.20;;;;;;6204741;23;20133;-90
2021/08/14 12:35:32;;;;;;;6.07;4.82;;;38.50;43.60;;;;;;6077703;23;20414;-88
2021/08/14 12:38:25;;;;;;;7.75;5.38;;;37.00;44.90;;;;;;6076301;23;20035;-89
2021/08/14 12:41:16;;;;;;;9.77;5.03;;;35.80;46.70;;;;;;6055284;23;20030;-89
2021/08/14 12:44:40;;;;;;;7.63;5.32;;;36.10;48.90;;;;;;6076594;23;20457;-92
2021/08/14 12:47:30;;;;;;;12.80;5.90;;;37.40;46.20;;;;;;6077687;23;20137;-92
2021/08/14 12:50:29;;;;;;;14.30;5.43;;;38.30;43.70;;;;;;6077652;23;20036;-88
2021/08/14 12:53:18;;;;;;;8.63;5.18;;;37.50;44.40;;;;;;6199809;23;20024;-90
2021/08/14 12:56:13;;;;;;;6.80;5.38;;;36.10;45.80;;;;;;6224692;23;20423;-89
2021/08/14 12:59:00;;;;;;;10.60;5.68;;;34.80;49.00;;;;;;6223941;23;20038;-87
2021/08/14 13:01:52;;;;;;;8.07;5.20;;;33.80;50.50;;;;;;6202064;23;20111;-89
2021/08/14 13:04:43;;;;;;;9.18;6.00;;;33.00;52.20;;;;;;6222707;23;20039;-90
2021/08/14 13:07:33;;;;;;;10.18;5.90;;;32.50;53.30;;;;;;6202374;23;20039;-88
2021/08/14 13:10:22;;;;;;;8.35;5.50;;;33.40;53.80;;;;;;6222508;23;20350;-87
2021/08/14 13:13:12;;;;;;;10.18;5.53;;;34.50;49.50;;;;;;6223710;23;20431;-90
2021/08/14 13:16:10;;;;;;;12.60;5.82;;;34.80;50.50;;;;;;6214983;23;20028;-89
2021/08/14 13:18:57;;;;;;;8.70;5.60;;;36.40;48.50;;;;;;6214477;23;20028;-91
2021/08/14 13:21:45;;;;;;;9.15;5.30;;;37.80;45.10;;;;;;6215240;23;20051;-91
2021/08/14 13:24:32;;;;;;;9.63;5.65;;;38.60;43.60;;;;;;6213429;23;20025;-90
2021/08/14 13:27:19;;;;;;;12.13;5.07;;;39.30;41.60;;;;;;6213717;23;20031;-90
2021/08/14 13:30:14;;;;;;;8.40;4.80;;;39.90;40.60;;;;;;6190843;23;20028;-91
2021/08/14 13:33:03;;;;;;;8.88;4.60;;;40.10;40.20;;;;;;6214180;23;20024;-90
2021/08/14 13:35:51;;;;;;;9.18;5.40;;;40.40;40.60;;;;;;6196269;23;20032;-93
2021/08/14 13:38:38;;;;;;;13.63;5.40;;;41.20;40.70;;;;;;6217209;23;20527;-90
2021/08/14 13:41:29;;;;;;;7.35;5.13;;;41.90;39.20;;;;;;6214364;23;20332;-91
2021/08/14 13:44:19;;;;;;;8.30;5.00;;;41.90;37.70;;;;;;6212447;23;20088;-90
2021/08/14 13:47:06;;;;;;;6.47;4.60;;;42.70;38.10;;;;;;6213471;23;20025;-89
2021/08/14 13:49:53;;;;;;;7.90;4.93;;;42.80;39.60;;;;;;6212843;23;20100;-90
2021/08/14 13:52:44;;;;;;;6.47;4.85;;;42.80;38.60;;;;;;6213862;23;20039;-90
2021/08/14 13:55:33;;;;;;;9.55;5.55;;;42.10;36.60;;;;;;6213219;23;20024;-89
2021/08/14 13:58:20;;;;;;;8.15;5.47;;;40.90;39.10;;;;;;6213110;23;20040;-89
2021/08/14 14:01:08;;;;;;;11.23;6.03;;;40.30;39.60;;;;;;6210822;23;20036;-92
2021/08/14 14:03:56;;;;;;;10.55;5.47;;;40.20;40.00;;;;;;6213293;23;20024;-90
2021/08/14 14:06:43;;;;;;;11.88;6.22;;;40.60;40.10;;;;;;6213524;23;20027;-88
2021/08/14 14:09:31;;;;;;;9.40;5.43;;;40.40;39.70;;;;;;6213768;23;20431;-89
2021/08/14 14:12:19;;;;;;;6.70;5.07;;;40.50;41.00;;;;;;6193005;23;20025;-88
2021/08/14 14:15:11;;;;;;;8.43;5.22;;;40.90;39.60;;;;;;6222057;23;20411;-88
2021/08/14 14:18:02;;;;;;;6.40;5.13;;;40.90;40.50;;;;;;6245142;23;20020;-89
2021/08/14 14:20:49;;;;;;;6.50;5.00;;;40.70;40.80;;;;;;6203442;23;20020;-91
2021/08/14 14:23:37;;;;;;;10.85;5.45;;;40.20;40.90;;;;;;6224567;22;20024;-91
2021/08/14 14:26:24;;;;;;;7.05;5.65;;;40.30;40.40;;;;;;6223547;23;20100;-90
2021/08/14 14:29:11;;;;;;;8.32;5.25;;;41.10;38.90;;;;;;6222869;23;20028;-90
2021/08/14 14:32:00;;;;;;;10.15;5.57;;;41.60;38.30;;;;;;6224462;23;20028;-91
2021/08/14 14:34:47;;;;;;;10.88;4.78;;;41.30;39.70;;;;;;6222708;23;20032;-92
2021/08/14 14:37:35;;;;;;;11.90;5.60;;;41.50;38.50;;;;;;6222882;23;20024;-93
2021/08/14 14:40:23;;;;;;;10.80;5.25;;;41.70;39.00;;;;;;6223656;22;20145;-91
2021/08/14 14:43:11;;;;;;;7.10;5.60;;;41.70;39.40;;;;;;6222377;23;20020;-90
2021/08/14 14:46:01;;;;;;;9.25;5.30;;;41.70;37.60;;;;;;6244230;23;20024;-91
2021/08/14 14:48:50;;;;;;;7.90;5.68;;;42.20;38.50;;;;;;6223368;23;20103;-92
2021/08/14 14:51:40;;;;;;;8.70;5.50;;;42.10;37.60;;;;;;6185167;23;20028;-91
2021/08/14 14:54:30;;;;;;;9.52;5.60;;;41.70;37.80;;;;;;6245349;23;20043;-91
2021/08/14 14:57:18;;;;;;;11.23;5.80;;;41.00;38.40;;;;;;6203695;23;20099;-90
2021/08/14 15:00:08;;;;;;;11.10;6.20;;;40.50;39.50;;;;;;6222756;23;20078;-92
2021/08/14 15:02:58;;;;;;;10.13;5.55;;;39.90;41.10;;;;;;6223552;23;20052;-91
2021/08/14 15:05:49;;;;;;;7.57;5.50;;;39.80;40.80;;;;;;6226292;22;20111;-90